Orlando, FL (32810)

2:15 PM EDT on August 28, 2016 (GMT -0400)
lockhart | | Change Station

Elev 105 ft 28.62 °N, 81.44 °W | Updated 25 seconds ago

Scattered Clouds
Scattered Clouds
91.2 °F
Feels Like 98 °F
N
5.4
Wind Variable Wind from NE
Gusts 9.8 mph

Today
High -- | Low -- °F
--% Chance of Precip.
Yesterday
High -- | Low -- °F
Precip. -- in
Pressure 29.98 in
Visibility 10.0 miles
Clouds Few 4200 ft
Scattered Clouds 6000 ft
Heat Index 98 °F
Dew Point 71 °F
Humidity 52%
Rainfall 0.00 in
Snow Depth Not available.
7:02 AM 7:51 PM
Waning Crescent, 14% visible
METAR KORL 281753Z 08016KT 10SM FEW042 SCT060 33/24 A2997 RMK AO2 SLP151 60000 T03280239 10333 20256 56014
Pressure 29.98 in
Visibility 10.0 miles
Clouds Few 4200 ft
Scattered Clouds 6000 ft
Heat Index 98 °F
Dew Point 71 °F
Humidity 52%
Rainfall 0.00 in
Snow Depth Not available.
7:02 AM 7:51 PM
Waning Crescent, 14% visible
METAR KORL 281753Z 08016KT 10SM FEW042 SCT060 33/24 A2997 RMK AO2 SLP151 60000 T03280239 10333 20256 56014

10-Day Weather Forecast

Almanac

Astronomy

Aug. 28, 2016 Rise Set
Actual Time
Civil Twilight
Nautical Twilight
Astronomical Twilight
Moon
Length of Visible Light
Length of Day
Tomorrow will be .
, % of the Moon is Illuminated

Today's Extremes

State Highs State Lows

Community

WunderPhotos

Upload Photos

1,935,644 photos uploaded!

WunderBlog® & News

Nearby

Air Quality

  Air Quality AQ Index Pollutant
Not available.

Snow Depth

Station Depth Elevation

Earthquake Activity

City Distance Mag. Time & Date
Minimum magnitude displayed is 2.5.

Coastal Water Temperatures

Place Temperature

Stations

Nearby Weather Stations

Station Location Temp. Windchill Dew Point Humidity Wind Precip. Elev Updated Type
                   

Watches & Warnings

There are currently no watches in effect.